Time;durP1;ratioP1;P1;durP2;ratioP2;P2;SDS_P1;SDS_P2;PMS_P1;PMS_P2;Temp;Humidity;BMP_temperature;BMP_pressure;BME280_temperature;BME280_humidity;BME280_pressure;Samples;Min_cycle;Max_cycle;Signal;HPM_P1;HPM_P2
2022/05/25 00:01:48;;;;;;;2.60;0.82;;;;;;;17.15;58.25;98804.56;5103937;29;20086;-70
2022/05/25 00:04:38;;;;;;;4.78;0.90;;;;;;;17.26;58.56;98805.94;5104020;29;20059;-71
2022/05/25 00:07:28;;;;;;;4.45;1.00;;;;;;;17.16;57.79;98800.06;5104401;29;20051;-73
2022/05/25 00:10:19;;;;;;;4.20;0.65;;;;;;;17.21;57.69;98806.50;5117093;29;20048;-71
2022/05/25 00:13:09;;;;;;;1.98;0.90;;;;;;;17.25;57.81;98809.63;5091513;29;20329;-73
2022/05/25 00:15:59;;;;;;;2.55;0.82;;;;;;;17.21;57.74;98805.66;5103680;29;20442;-73
2022/05/25 00:21:58;;;;;;;2.92;0.90;;;;;;;17.12;57.79;98811.16;5103548;29;20047;-71
2022/05/25 00:24:49;;;;;;;1.48;0.98;;;;;;;17.16;59.17;98816.97;5103449;29;20058;-72
2022/05/25 00:27:40;;;;;;;0.88;0.57;;;;;;;17.07;58.78;98829.63;5103854;29;20066;-72
2022/05/25 00:30:31;;;;;;;3.67;0.80;;;;;;;16.93;58.37;98810.94;5115948;29;20062;-71
2022/05/25 00:33:21;;;;;;;0.80;0.80;;;;;;;16.97;57.88;98807.69;5103786;29;20111;-71
2022/05/25 00:36:11;;;;;;;1.70;0.82;;;;;;;16.87;57.93;98818.69;5096542;29;20520;-73
2022/05/25 00:39:02;;;;;;;4.00;0.82;;;;;;;16.97;58.46;98807.69;5103518;29;20084;-72
2022/05/25 00:41:52;;;;;;;1.50;0.80;;;;;;;16.97;57.79;98810.38;5115723;29;20059;-72
2022/05/25 00:44:43;;;;;;;3.53;0.88;;;;;;;16.97;58.00;98801.50;5101705;29;20530;-71
2022/05/25 00:47:37;;;;;;;3.05;1.00;;;;;;;17.02;58.08;98817.81;5103781;29;20063;-71
2022/05/25 00:51:11;;;;;;;2.05;1.00;;;;;;;16.97;58.31;98813.03;5103227;29;20051;-71
2022/05/25 00:53:40;;;;;;;3.83;1.20;;;;;;;16.86;59.46;98817.06;5092179;29;20423;-73
2022/05/25 00:56:33;;;;;;;3.33;0.90;;;;;;;16.80;59.67;98822.31;5103099;29;20091;-71
2022/05/25 00:59:33;;;;;;;4.07;1.00;;;;;;;16.70;58.59;98813.72;5102623;29;20171;-73
2022/05/25 01:02:27;;;;;;;0.80;0.75;;;;;;;16.66;59.41;98826.66;5102944;29;20056;-72
2022/05/25 01:05:39;;;;;;;4.43;1.10;;;;;;;16.85;59.04;98818.06;5099870;29;20067;-71
2022/05/25 01:08:55;;;;;;;4.07;0.95;;;;;;;16.66;59.73;98816.78;5103086;29;20136;-70
2022/05/25 01:12:05;;;;;;;2.13;1.30;;;;;;;16.63;60.12;98824.34;5092251;29;20066;-70
2022/05/25 01:15:06;;;;;;;2.92;0.82;;;;;;;16.67;59.60;98825.63;5103951;29;20059;-71
2022/05/25 01:18:16;;;;;;;7.03;0.85;;;;;;;16.76;59.20;98829.09;5103921;29;20088;-72
2022/05/25 01:21:31;;;;;;;5.32;1.05;;;;;;;16.65;59.39;98830.34;5103469;29;20048;-73
2022/05/25 01:24:54;;;;;;;1.58;0.90;;;;;;;16.72;59.10;98841.13;5103873;29;20058;-71
2022/05/25 01:27:47;;;;;;;3.22;1.10;;;;;;;16.70;59.02;98846.69;5105092;29;20054;-72
2022/05/25 01:30:40;;;;;;;3.72;1.02;;;;;;;16.65;59.14;98849.06;5103776;29;20059;-73
2022/05/25 01:33:38;;;;;;;1.92;0.98;;;;;;;16.59;59.68;98839.97;5090966;29;20177;-72
2022/05/25 01:36:46;;;;;;;1.65;0.90;;;;;;;16.45;59.26;98856.84;5098937;29;20066;-72
2022/05/25 01:39:44;;;;;;;1.65;1.00;;;;;;;16.28;59.59;98850.03;5102712;29;20056;-72
2022/05/25 01:42:43;;;;;;;1.48;1.10;;;;;;;16.21;60.17;98860.63;5103157;29;20059;-72
2022/05/25 01:45:37;;;;;;;1.65;0.75;;;;;;;16.32;59.56;98859.34;5101211;29;20060;-72
2022/05/25 01:48:28;;;;;;;1.40;0.85;;;;;;;16.43;59.42;98849.00;5104119;29;20060;-71
2022/05/25 01:51:34;;;;;;;2.92;1.00;;;;;;;16.44;59.30;98849.84;5102919;29;20146;-72
2022/05/25 01:54:29;;;;;;;2.53;1.20;;;;;;;16.21;60.03;98849.91;5102654;29;20126;-72
2022/05/25 01:57:24;;;;;;;2.65;1.00;;;;;;;16.18;59.26;98848.44;5102941;29;20059;-72
2022/05/25 02:00:39;;;;;;;1.25;0.90;;;;;;;15.95;60.16;98851.16;5115580;29;20048;-72
2022/05/25 02:06:41;;;;;;;8.15;0.98;;;;;;;16.14;59.76;98859.69;5100771;29;20055;-72
2022/05/25 02:09:46;;;;;;;4.30;1.38;;;;;;;16.25;59.44;98853.06;5103571;29;20471;-72
2022/05/25 02:13:07;;;;;;;1.88;1.08;;;;;;;16.21;60.16;98850.75;5102787;29;20102;-73
2022/05/25 02:16:13;;;;;;;3.50;0.90;;;;;;;16.19;59.96;98860.81;5102415;29;20109;-72
2022/05/25 02:19:23;;;;;;;4.47;1.13;;;;;;;16.08;59.84;98849.72;5102617;29;20059;-73
2022/05/25 02:22:17;;;;;;;2.45;1.15;;;;;;;16.15;59.96;98858.66;5102315;29;20183;-73
2022/05/25 02:25:26;;;;;;;5.18;0.88;;;;;;;16.09;59.72;98859.41;5114853;29;20128;-72
2022/05/25 02:28:27;;;;;;;3.60;1.00;;;;;;;16.09;59.52;98860.25;5102695;29;20047;-72
2022/05/25 02:31:22;;;;;;;1.33;1.05;;;;;;;16.03;59.44;98847.59;5102351;29;20070;-71
2022/05/25 02:34:16;;;;;;;3.17;1.00;;;;;;;15.98;59.14;98856.16;5101885;29;20518;-71
2022/05/25 02:37:08;;;;;;;4.17;1.10;;;;;;;15.97;59.39;98857.19;5103496;29;20418;-71
2022/05/25 02:40:00;;;;;;;2.60;0.95;;;;;;;16.09;59.39;98862.06;5105219;29;20059;-71
2022/05/25 02:42:50;;;;;;;1.45;0.90;;;;;;;16.02;59.58;98861.97;5105102;29;20051;-72
2022/05/25 02:45:42;;;;;;;3.40;1.02;;;;;;;16.02;58.85;98861.97;5117322;29;20175;-70
2022/05/25 02:48:34;;;;;;;3.75;1.20;;;;;;;15.95;59.36;98855.69;5098716;29;20154;-71
2022/05/25 02:51:24;;;;;;;3.75;1.10;;;;;;;16.00;58.81;98868.53;5102206;29;20059;-70
2022/05/25 02:54:15;;;;;;;4.22;1.17;;;;;;;15.84;59.56;98874.84;5114484;29;20062;-74
2022/05/25 02:57:06;;;;;;;1.33;0.85;;;;;;;15.82;59.84;98872.34;5102461;29;20047;-72
2022/05/25 02:59:56;;;;;;;3.85;1.10;;;;;;;15.83;59.68;98876.72;5102208;29;20057;-71
2022/05/25 03:02:47;;;;;;;2.45;1.10;;;;;;;15.89;60.13;98881.34;5097487;29;20445;-70
2022/05/25 03:05:38;;;;;;;2.03;1.10;;;;;;;15.89;59.37;98878.66;5114378;29;20486;-72
2022/05/25 03:08:28;;;;;;;3.63;1.30;;;;;;;15.70;60.14;98879.16;5101272;29;20059;-71
2022/05/25 03:11:18;;;;;;;4.05;1.15;;;;;;;15.50;61.00;98868.09;5102055;29;20162;-72
2022/05/25 03:14:08;;;;;;;5.45;1.10;;;;;;;15.67;60.15;98868.81;5102950;29;20478;-71
2022/05/25 03:17:04;;;;;;;2.78;1.13;;;;;;;15.81;59.74;98881.38;5114235;29;20059;-71
2022/05/25 03:19:56;;;;;;;2.90;0.93;;;;;;;15.74;59.61;98883.13;5102043;29;20130;-71
2022/05/25 03:22:46;;;;;;;1.23;1.00;;;;;;;15.72;59.23;98885.13;5101620;29;20520;-71
2022/05/25 03:25:36;;;;;;;3.25;1.30;;;;;;;15.64;58.90;98886.00;5101706;29;20066;-73
2022/05/25 03:28:27;;;;;;;5.18;1.00;;;;;;;15.75;58.92;98890.13;5101604;29;20130;-71
2022/05/25 03:31:17;;;;;;;4.82;1.02;;;;;;;15.64;58.98;98891.34;5101439;29;20063;-70
2022/05/25 03:34:07;;;;;;;4.63;1.27;;;;;;;15.69;59.16;98889.03;5108830;29;20489;-70
2022/05/25 03:36:58;;;;;;;2.10;0.98;;;;;;;15.64;59.15;98891.34;5089636;29;20075;-70
2022/05/25 03:39:48;;;;;;;1.83;1.00;;;;;;;15.72;59.53;98893.97;5102426;29;20145;-70
2022/05/25 03:42:42;;;;;;;1.85;0.93;;;;;;;15.58;59.56;98886.72;5090805;29;20185;-70
2022/05/25 03:45:32;;;;;;;2.13;1.00;;;;;;;15.50;59.90;98911.66;5111480;29;20526;-74
2022/05/25 03:48:22;;;;;;;1.73;0.90;;;;;;;15.50;59.36;98900.97;5095389;29;20471;-70
2022/05/25 03:51:13;;;;;;;1.98;0.98;;;;;;;15.57;59.77;98916.31;5101823;29;20084;-72
2022/05/25 03:54:03;;;;;;;3.78;1.23;;;;;;;15.55;59.63;98913.78;5101102;29;20111;-70
2022/05/25 03:56:53;;;;;;;6.32;1.40;;;;;;;15.62;59.11;98927.28;5101532;29;20059;-72
2022/05/25 03:59:45;;;;;;;0.95;0.90;;;;;;;15.42;59.35;98925.06;5101466;29;20056;-71
2022/05/25 04:02:36;;;;;;;1.27;0.90;;;;;;;15.39;59.86;98928.09;5095502;29;20055;-71
2022/05/25 04:05:27;;;;;;;7.30;1.42;;;;;;;15.36;60.29;98924.94;5110924;29;20062;-70
2022/05/25 04:08:16;;;;;;;3.80;1.08;;;;;;;15.62;60.24;98941.47;5100694;29;20056;-70
2022/05/25 04:11:07;;;;;;;2.22;1.17;;;;;;;15.55;59.96;98934.34;5113406;29;20431;-69
2022/05/25 04:13:57;;;;;;;4.20;1.48;;;;;;;15.54;60.11;98936.19;5100929;29;20422;-70
2022/05/25 04:16:47;;;;;;;3.42;1.30;;;;;;;15.43;61.24;98948.13;5100678;29;20126;-69
2022/05/25 04:19:38;;;;;;;2.97;1.10;;;;;;;15.48;60.36;98948.41;5103163;29;20458;-70
2022/05/25 04:22:29;;;;;;;3.60;1.40;;;;;;;15.31;60.21;98928.16;5103946;29;20062;-70
2022/05/25 04:25:22;;;;;;;2.20;1.25;;;;;;;15.43;60.31;98956.13;5105287;29;20491;-70
2022/05/25 04:28:13;;;;;;;6.13;1.45;;;;;;;15.38;60.65;98958.50;5105213;29;20062;-69
2022/05/25 04:31:04;;;;;;;1.63;1.20;;;;;;;15.51;59.27;98966.75;5105885;29;20055;-70
2022/05/25 04:33:54;;;;;;;7.32;1.10;;;;;;;15.38;59.39;98974.53;5105155;29;20419;-71
2022/05/25 04:36:45;;;;;;;3.30;0.90;;;;;;;15.52;59.33;98973.75;5098677;29;20430;-72
2022/05/25 04:39:35;;;;;;;3.08;1.02;;;;;;;15.60;59.37;98985.44;5104874;29;20523;-71
2022/05/25 04:42:29;;;;;;;2.35;1.00;;;;;;;15.55;59.47;98982.44;5114674;29;20075;-71
2022/05/25 04:45:20;;;;;;;4.13;1.50;;;;;;;15.47;59.31;98986.00;5110414;29;20063;-72
2022/05/25 04:48:14;;;;;;;10.23;1.50;;;;;;;15.58;59.04;98985.59;5115588;29;20060;-70
2022/05/25 04:51:05;;;;;;;7.83;1.17;;;;;;;15.73;58.12;98996.41;5104035;29;20122;-69
2022/05/25 04:53:55;;;;;;;2.42;0.90;;;;;;;15.74;58.23;98992.72;5104507;29;20126;-68
2022/05/25 05:00:00;;;;;;;4.18;1.00;;;;;;;15.69;59.73;99000.44;5097069;29;20056;-70
2022/05/25 05:02:50;;;;;;;3.70;0.90;;;;;;;15.70;59.25;99015.47;5103775;29;20191;-70
2022/05/25 05:05:41;;;;;;;2.90;1.13;;;;;;;15.22;58.03;98974.59;5113457;29;20507;-69
2022/05/25 05:08:31;;;;;;;3.25;1.27;;;;;;;15.68;58.67;99020.16;5095738;29;20052;-69
2022/05/25 05:11:22;;;;;;;3.17;1.15;;;;;;;15.73;58.58;99023.16;5103448;29;20067;-69
2022/05/25 05:14:15;;;;;;;5.25;1.15;;;;;;;15.73;58.75;99025.81;5103535;29;20083;-70
2022/05/25 05:17:07;;;;;;;4.35;0.90;;;;;;;15.75;57.46;99023.78;5103622;29;20521;-70
2022/05/25 05:20:17;;;;;;;2.53;1.00;;;;;;;15.73;58.52;99023.97;5109911;29;20126;-70
2022/05/25 05:23:08;;;;;;;2.10;1.15;;;;;;;15.66;58.74;99039.06;5103940;29;20052;-70
2022/05/25 05:25:59;;;;;;;5.35;1.20;;;;;;;15.87;58.22;99041.09;5116848;29;20512;-70
2022/05/25 05:28:53;;;;;;;3.42;0.95;;;;;;;15.59;57.21;99026.50;5101733;29;20450;-71
2022/05/25 05:31:43;;;;;;;1.95;0.88;;;;;;;15.75;57.52;99037.16;5099725;29;20086;-70
2022/05/25 05:34:33;;;;;;;2.40;1.00;;;;;;;15.60;58.07;99050.41;5115738;29;20047;-71
2022/05/25 05:37:53;;;;;;;2.97;1.00;;;;;;;15.61;58.67;99059.25;5104111;29;20071;-70
2022/05/25 05:40:44;;;;;;;7.60;1.40;;;;;;;15.79;57.25;99059.00;5103650;29;20047;-71
2022/05/25 05:43:34;;;;;;;2.97;1.15;;;;;;;15.67;57.60;99045.22;5116019;28;20052;-71
2022/05/25 05:46:26;;;;;;;3.75;1.20;;;;;;;15.45;57.73;99054.81;5104517;29;20062;-70
2022/05/25 05:49:16;;;;;;;2.42;1.17;;;;;;;15.87;57.52;99069.69;5104326;29;20167;-70
2022/05/25 05:52:08;;;;;;;4.18;1.40;;;;;;;15.81;57.58;99054.34;5105629;29;20054;-70
2022/05/25 05:54:58;;;;;;;1.75;1.20;;;;;;;16.08;56.73;99072.53;5104911;29;20058;-70
2022/05/25 05:57:49;;;;;;;2.65;1.17;;;;;;;15.60;57.17;99053.09;5102530;29;20472;-70
2022/05/25 06:00:39;;;;;;;5.55;1.20;;;;;;;16.05;57.71;99056.84;5102923;29;20054;-70
2022/05/25 06:03:29;;;;;;;6.80;1.35;;;;;;;16.05;57.27;99061.38;5103478;29;20107;-70
2022/05/25 06:06:20;;;;;;;4.40;1.00;;;;;;;16.19;56.98;99073.97;5102383;29;20063;-70
2022/05/25 06:09:10;;;;;;;3.22;1.15;;;;;;;16.06;56.10;99073.72;5115440;29;20055;-71
2022/05/25 06:12:00;;;;;;;7.90;1.20;;;;;;;16.13;55.51;99069.34;5115336;28;20063;-70
2022/05/25 06:14:50;;;;;;;6.78;1.23;;;;;;;16.35;56.56;99081.06;5102703;29;20138;-70
2022/05/25 06:20:49;;;;;;;1.70;0.98;;;;;;;17.13;55.57;99086.06;5116480;29;20448;-71
2022/05/25 06:23:39;;;;;;;3.45;0.98;;;;;;;17.24;54.22;99095.50;5102799;29;20052;-70
2022/05/25 06:26:32;;;;;;;3.00;1.20;;;;;;;17.03;55.26;99093.56;5103443;29;20062;-70
2022/05/25 06:29:23;;;;;;;1.20;0.77;;;;;;;17.21;53.67;99095.88;5101440;29;20054;-70
2022/05/25 06:32:15;;;;;;;3.55;0.80;;;;;;;17.26;53.60;99114.91;5102310;29;20334;-70
2022/05/25 06:35:05;;;;;;;3.47;0.95;;;;;;;17.38;52.83;99117.97;5102354;29;20055;-70
2022/05/25 06:37:56;;;;;;;3.75;1.10;;;;;;;17.84;53.16;99118.59;5103020;29;20079;-71
2022/05/25 06:40:46;;;;;;;2.15;1.13;;;;;;;17.86;52.08;99117.59;5100230;29;20138;-71
2022/05/25 06:43:36;;;;;;;4.88;0.98;;;;;;;17.71;51.99;99120.25;5102132;29;20079;-69
2022/05/25 06:46:26;;;;;;;3.13;1.00;;;;;;;18.25;52.07;99118.06;5101612;29;20573;-69
2022/05/25 06:49:17;;;;;;;3.95;0.90;;;;;;;18.63;50.37;99125.84;5102712;29;20065;-69
2022/05/25 06:52:14;;;;;;;5.50;1.10;;;;;;;18.31;50.86;99101.19;5096318;29;20503;-70
2022/05/25 06:55:05;;;;;;;3.85;1.00;;;;;;;18.75;50.09;99124.34;5102394;29;20055;-70
2022/05/25 06:57:55;;;;;;;2.50;1.00;;;;;;;18.59;50.02;99115.72;5097671;29;20060;-70
2022/05/25 07:00:45;;;;;;;4.28;1.20;;;;;;;19.18;48.36;99124.28;5097523;29;20059;-70
2022/05/25 07:03:38;;;;;;;3.08;1.10;;;;;;;20.60;47.72;99139.84;5095166;29;20047;-71
2022/05/25 07:06:28;;;;;;;2.95;0.90;;;;;;;20.16;46.99;99133.09;5102573;29;20066;-70
2022/05/25 07:09:19;;;;;;;4.53;1.25;;;;;;;19.50;48.59;99148.88;5090271;29;20418;-70
2022/05/25 07:12:09;;;;;;;2.67;1.10;;;;;;;19.18;47.38;99153.03;5103193;29;20051;-70
2022/05/25 07:15:00;;;;;;;6.80;1.13;;;;;;;20.03;45.98;99151.88;5102601;29;20186;-70
2022/05/25 07:17:50;;;;;;;3.40;1.00;;;;;;;21.15;44.53;99152.31;5101362;29;20126;-70
2022/05/25 07:20:40;;;;;;;4.47;0.85;;;;;;;22.23;41.62;99144.63;5100968;29;20058;-70
2022/05/25 07:23:31;;;;;;;3.45;1.02;;;;;;;22.89;40.05;99138.78;5113128;29;20066;-71
2022/05/25 07:26:23;;;;;;;3.42;0.95;;;;;;;21.89;43.10;99148.47;5101973;29;20059;-71
2022/05/25 07:29:14;;;;;;;1.80;0.70;;;;;;;22.13;43.38;99149.63;5102111;29;20099;-70
2022/05/25 07:32:09;;;;;;;4.10;0.80;;;;;;;23.65;37.19;99153.09;5101115;29;20173;-71
2022/05/25 07:35:04;;;;;;;3.85;1.00;;;;;;;24.61;39.43;99154.22;5101907;29;20142;-71
2022/05/25 07:37:55;;;;;;;3.28;0.77;;;;;;;25.14;37.25;99144.47;5114435;29;20062;-70
2022/05/25 07:40:46;;;;;;;4.38;0.90;;;;;;;24.49;34.98;99153.34;5101496;29;20138;-70
2022/05/25 07:43:38;;;;;;;4.50;0.80;;;;;;;24.22;35.94;99145.56;5101597;29;20047;-70
2022/05/25 07:46:29;;;;;;;9.02;0.80;;;;;;;23.20;39.04;99148.72;5092806;29;21212;-70
2022/05/25 07:49:23;;;;;;;3.22;1.05;;;;;;;22.72;38.87;99149.31;5094839;29;20434;-70
2022/05/25 07:52:14;;;;;;;3.00;0.93;;;;;;;24.36;38.73;99157.03;5113683;29;20491;-70
2022/05/25 07:55:06;;;;;;;3.40;1.00;;;;;;;24.85;34.23;99155.94;5101601;29;20421;-70
2022/05/25 07:57:56;;;;;;;4.53;0.95;;;;;;;24.09;36.36;99154.69;5105671;29;20047;-70
2022/05/25 08:00:51;;;;;;;2.05;0.75;;;;;;;24.43;36.75;99162.41;5105192;29;20513;-70
2022/05/25 08:06:53;;;;;;;3.50;0.88;;;;;;;23.90;34.75;99163.88;5105473;29;20136;-71
2022/05/25 08:09:51;;;;;;;2.10;0.80;;;;;;;25.82;35.46;99151.97;5092078;29;20194;-71
2022/05/25 08:12:42;;;;;;;2.92;0.80;;;;;;;24.99;34.37;99148.41;5105238;29;20098;-71
2022/05/25 08:15:33;;;;;;;4.50;1.20;;;;;;;23.45;38.08;99164.94;5087428;29;20066;-70
2022/05/25 08:18:24;;;;;;;4.82;1.05;;;;;;;23.14;38.90;99157.72;5103424;29;20530;-70
2022/05/25 08:21:14;;;;;;;1.52;0.82;;;;;;;24.41;36.72;99162.63;5103915;29;20063;-70
2022/05/25 08:24:24;;;;;;;3.97;0.60;;;;;;;25.45;36.64;99156.84;5093060;29;20126;-70
2022/05/25 08:27:15;;;;;;;2.40;0.88;;;;;;;23.85;36.61;99155.59;5104877;29;20062;-70
2022/05/25 08:30:08;;;;;;;1.33;0.65;;;;;;;23.11;37.76;99160.03;5099454;29;20231;-70
2022/05/25 08:32:58;;;;;;;5.15;1.08;;;;;;;23.73;37.48;99154.69;5104558;29;20123;-70
2022/05/25 08:35:50;;;;;;;2.80;1.13;;;;;;;23.60;39.04;99156.44;5117227;29;20071;-70
2022/05/25 08:38:40;;;;;;;2.55;1.00;;;;;;;24.34;39.27;99159.16;5104625;29;20048;-70
2022/05/25 08:41:34;;;;;;;2.28;0.65;;;;;;;24.58;35.30;99160.09;5104675;29;20067;-70
2022/05/25 08:44:25;;;;;;;4.43;0.90;;;;;;;25.79;35.90;99155.13;5103973;29;20048;-70
2022/05/25 08:47:20;;;;;;;5.05;0.70;;;;;;;25.26;34.81;99026.69;5172084;23;20101;-94
2022/05/25 08:50:17;;;;;;;4.90;0.60;;;;;;;24.72;34.34;99022.44;5183667;28;20148;-94
2022/05/25 08:53:11;;;;;;;6.18;0.75;;;;;;;24.25;33.62;99112.59;5192694;28;20081;-94
2022/05/25 08:56:36;;;;;;;3.13;0.60;;;;;;;25.48;32.96;99156.38;5192842;28;20081;-93
2022/05/25 08:59:52;;;;;;;2.72;0.57;;;;;;;25.62;33.63;99016.56;5162022;28;20061;-92
2022/05/25 09:03:24;;;;;;;2.20;0.60;;;;;;;27.11;34.51;99150.59;5172666;28;20137;-94
2022/05/25 09:06:35;;;;;;;2.63;0.73;;;;;;;27.00;30.00;99149.63;5181255;28;20050;-91
2022/05/25 09:09:36;;;;;;;4.70;0.70;;;;;;;25.83;30.81;99099.31;5176532;28;20076;-92
2022/05/25 09:17:57;;;;;;;;;;;;;;;;;;;;;
2022/05/25 09:29:35;;;;;;;1.83;0.57;;;;;;;24.33;33.53;99152.91;5163048;28;20050;-83
2022/05/25 09:32:47;;;;;;;2.30;0.60;;;;;;;24.79;34.23;99162.28;5178796;28;20058;-83
2022/05/25 09:35:51;;;;;;;3.70;0.70;;;;;;;23.65;33.24;99163.91;5149144;28;20081;-84
2022/05/25 09:38:45;;;;;;;1.60;0.65;;;;;;;23.65;36.43;99167.44;5145443;28;20050;-82
2022/05/25 09:41:40;;;;;;;1.27;0.50;;;;;;;24.39;33.49;99151.16;5153110;28;20050;-82
2022/05/25 09:44:32;;;;;;;2.53;0.60;;;;;;;24.39;31.99;99162.00;5165402;28;20069;-83
2022/05/25 09:47:37;;;;;;;4.15;0.70;;;;;;;24.29;34.15;99148.19;5166370;28;20082;-83
2022/05/25 09:50:29;;;;;;;2.15;0.68;;;;;;;24.90;33.26;99165.25;5162650;28;20129;-84
2022/05/25 09:53:24;;;;;;;2.92;0.50;;;;;;;25.47;33.69;99141.97;5165761;28;20467;-83
2022/05/25 09:56:15;;;;;;;;;;;;;;;24.33;33.86;99179.16;5166136;28;20090;-83
2022/05/25 09:59:25;;;;;;;1.33;0.55;;;;;;;24.50;35.58;99155.00;5167452;28;19936;-83
2022/05/25 10:02:23;;;;;;;1.63;0.40;;;;;;;24.56;33.19;99152.19;5155219;28;20050;-83
2022/05/25 10:05:25;;;;;;;1.35;0.45;;;;;;;24.96;35.37;99172.44;5168786;28;20065;-83
2022/05/25 10:08:26;;;;;;;6.15;0.88;;;;;;;24.83;32.43;99149.94;5170686;28;20081;-83
2022/05/25 10:11:28;;;;;;;2.17;0.50;;;;;;;23.67;34.36;99154.53;5170087;28;20058;-84
2022/05/25 10:14:35;;;;;;;2.15;0.60;;;;;;;24.74;32.00;99140.47;5171990;28;20113;-84
2022/05/25 10:17:30;;;;;;;1.30;0.40;;;;;;;24.22;32.66;99161.81;5170025;28;20113;-83
2022/05/25 10:20:23;;;;;;;2.78;0.68;;;;;;;23.33;35.89;99177.53;5171236;28;20061;-84
2022/05/25 10:23:27;;;;;;;2.45;0.60;;;;;;;23.02;37.29;99158.69;5171098;28;20082;-83
2022/05/25 10:26:33;;;;;;;6.53;0.73;;;;;;;23.51;34.55;99146.13;5167417;28;20110;-85
2022/05/25 10:39:23;;;;;;;4.20;0.85;;;;;;;24.72;34.70;99166.97;5166934;28;20512;-83
2022/05/25 10:42:37;;;;;;;1.73;0.70;;;;;;;24.59;32.80;99165.28;5189579;28;20046;-82
2022/05/25 10:45:41;;;;;;;3.03;0.65;;;;;;;25.35;33.14;99162.03;5173906;28;20415;-84
2022/05/25 10:48:57;;;;;;;2.97;0.90;;;;;;;25.81;34.23;99146.81;5170298;28;20118;-84
2022/05/25 10:51:52;;;;;;;2.88;0.52;;;;;;;24.51;34.73;99153.97;5169036;28;20085;-84
2022/05/25 10:54:46;;;;;;;2.28;0.50;;;;;;;24.17;33.55;99150.81;5163899;28;20065;-84
2022/05/25 10:58:17;;;;;;;2.38;0.68;;;;;;;25.10;32.93;99138.66;5155282;28;20050;-83
2022/05/25 11:01:15;;;;;;;1.92;0.50;;;;;;;25.78;32.90;99157.03;5159087;28;20076;-82
2022/05/25 11:04:36;;;;;;;4.63;0.52;;;;;;;25.93;31.76;99153.88;5165286;28;20116;-83
2022/05/25 11:07:37;;;;;;;3.35;0.73;;;;;;;25.60;31.23;99154.47;5163474;28;20080;-82
2022/05/25 11:10:37;;;;;;;3.70;0.88;;;;;;;25.03;32.61;99148.75;5154089;28;20077;-83
2022/05/25 11:14:02;;;;;;;1.70;0.50;;;;;;;25.22;33.66;99136.78;5159408;28;20061;-82
2022/05/25 11:16:59;;;;;;;2.70;0.40;;;;;;;25.34;32.15;99144.94;5134580;28;20054;-82
2022/05/25 11:20:09;;;;;;;2.97;0.60;;;;;;;25.47;33.76;99141.97;5178783;28;20105;-82
2022/05/25 11:23:11;;;;;;;2.20;0.70;;;;;;;24.82;34.18;99150.97;5163327;28;20127;-82
2022/05/25 11:26:20;;;;;;;3.65;0.57;;;;;;;23.68;34.50;99147.25;5153639;28;20049;-83
2022/05/25 11:29:41;;;;;;;2.70;0.50;;;;;;;24.17;32.88;99141.88;5155358;28;20428;-82
2022/05/25 11:32:49;;;;;;;1.70;0.75;;;;;;;24.11;34.33;99147.16;5182265;23;20054;-73
2022/05/25 11:36:02;;;;;;;1.40;0.75;;;;;;;24.32;34.31;99145.84;5176517;28;20104;-71
2022/05/25 11:39:21;;;;;;;1.50;0.43;;;;;;;23.98;31.81;99141.09;5158864;28;20133;-71
2022/05/25 11:42:27;;;;;;;3.92;0.65;;;;;;;23.74;35.91;99149.06;5170844;28;20046;-72
2022/05/25 11:45:39;;;;;;;2.63;0.50;;;;;;;23.25;36.01;99152.66;5155860;28;20082;-72
2022/05/25 11:48:35;;;;;;;1.00;0.60;;;;;;;23.29;33.92;99146.56;5172040;28;20061;-72
2022/05/25 11:51:41;;;;;;;1.70;0.50;;;;;;;22.71;35.07;99122.47;5158745;28;20073;-71
2022/05/25 11:55:02;;;;;;;2.72;0.75;;;;;;;23.40;35.88;99156.66;5161578;28;20054;-71
2022/05/25 11:58:26;;;;;;;4.07;0.50;;;;;;;24.08;33.83;99161.16;5161172;28;20136;-71
2022/05/25 12:01:37;;;;;;;1.48;0.60;;;;;;;23.85;32.88;99148.31;5146580;28;20453;-72
2022/05/25 12:04:53;;;;;;;1.30;0.50;;;;;;;24.27;32.73;99145.72;5160859;28;20053;-71
2022/05/25 12:08:14;;;;;;;1.08;0.47;;;;;;;23.78;34.18;99150.28;5160656;28;20527;-72
2022/05/25 12:11:17;;;;;;;3.15;0.70;;;;;;;24.18;31.90;99146.25;5158980;28;20133;-71
2022/05/25 12:14:36;;;;;;;1.50;0.55;;;;;;;24.29;30.91;99145.47;5160833;28;20073;-72
2022/05/25 12:17:53;;;;;;;2.78;0.80;;;;;;;23.64;32.73;99151.41;5160269;28;20057;-72
2022/05/25 12:21:30;;;;;;;3.20;0.50;;;;;;;23.79;32.79;99146.50;5159922;28;20136;-71
2022/05/25 12:24:35;;;;;;;3.17;0.47;;;;;;;23.33;32.64;99139.66;5137838;28;20051;-72
2022/05/25 12:27:33;;;;;;;2.22;0.50;;;;;;;23.29;35.27;99137.63;5138214;28;20186;-71
2022/05/25 12:30:40;;;;;;;2.17;0.60;;;;;;;23.78;34.84;99133.19;5157877;28;20053;-71
2022/05/25 12:33:31;;;;;;;6.63;0.63;;;;;;;23.25;34.90;99147.25;5149059;28;20070;-72
2022/05/25 12:36:22;;;;;;;2.85;0.85;;;;;;;23.90;33.23;99140.31;5159639;28;20058;-72
2022/05/25 12:39:13;;;;;;;1.35;0.43;;;;;;;23.32;30.16;99139.91;5160576;28;20077;-71
2022/05/25 12:42:22;;;;;;;2.47;0.35;;;;;;;23.85;35.78;99142.88;5164061;28;20058;-71
2022/05/25 12:48:53;;;;;;;1.55;0.45;;;;;;;22.23;35.22;99136.50;5164419;28;20132;-71
2022/05/25 12:51:44;;;;;;;2.25;0.50;;;;;;;23.31;34.22;99141.78;5163548;28;20125;-70
2022/05/25 12:54:42;;;;;;;3.90;0.50;;;;;;;22.88;34.63;99129.03;5161593;28;20054;-71
2022/05/25 12:57:52;;;;;;;1.90;0.50;;;;;;;23.16;34.88;99133.16;5154332;28;20077;-71
2022/05/25 13:01:07;;;;;;;1.55;0.60;;;;;;;22.66;34.37;99119.63;5163610;28;20161;-71
2022/05/25 13:04:39;;;;;;;5.15;0.47;;;;;;;23.66;33.14;99122.25;5163121;28;20077;-71
2022/05/25 13:07:39;;;;;;;1.65;0.60;;;;;;;22.90;34.30;99126.91;5163827;28;20147;-71
2022/05/25 13:10:31;;;;;;;0.68;0.40;;;;;;;23.44;33.34;99128.13;5162571;28;20520;-71
2022/05/25 13:13:24;;;;;;;2.50;0.50;;;;;;;22.91;34.85;99119.63;5164050;28;20054;-71
2022/05/25 13:16:45;;;;;;;2.22;0.75;;;;;;;22.67;34.15;99122.09;5162619;28;20057;-70
2022/05/25 13:19:43;;;;;;;4.55;0.55;;;;;;;22.23;36.18;99117.59;5160741;28;20050;-71
2022/05/25 13:22:34;;;;;;;4.75;0.60;;;;;;;22.72;34.94;99126.84;5153015;28;20428;-71
2022/05/25 13:25:33;;;;;;;3.75;0.65;;;;;;;22.40;33.89;99126.03;5166245;28;20049;-71
2022/05/25 13:28:46;;;;;;;1.20;0.50;;;;;;;22.98;33.18;99126.69;5150602;28;20058;-71
2022/05/25 13:31:39;;;;;;;2.92;0.40;;;;;;;23.19;34.15;99128.16;5161968;28;20065;-72
2022/05/25 13:34:32;;;;;;;1.53;0.50;;;;;;;22.72;34.48;99122.28;5161766;28;20691;-71
2022/05/25 13:37:22;;;;;;;2.88;0.60;;;;;;;22.61;33.91;99124.84;5162414;28;20396;-71
2022/05/25 13:40:13;;;;;;;9.82;0.95;;;;;;;22.77;35.16;99118.91;5161633;28;20579;-72
2022/05/25 13:43:03;;;;;;;3.20;0.60;;;;;;;22.67;35.69;99107.75;5147232;28;20057;-71
2022/05/25 13:45:53;;;;;;;1.73;0.52;;;;;;;23.00;36.45;99117.50;5160157;28;20111;-71
2022/05/25 13:48:52;;;;;;;1.52;0.60;;;;;;;22.63;35.23;99117.34;5162143;28;20061;-71
2022/05/25 13:51:42;;;;;;;1.77;0.73;;;;;;;22.29;34.36;99116.75;5153498;28;20069;-71
2022/05/25 13:54:35;;;;;;;2.35;0.60;;;;;;;23.04;35.96;99118.72;5181168;28;20046;-71
2022/05/25 13:57:51;;;;;;;3.95;0.50;;;;;;;23.18;34.68;99131.09;5146197;28;20105;-72
2022/05/25 14:00:49;;;;;;;2.20;0.60;;;;;;;22.64;36.42;99130.63;5161700;28;20081;-72
2022/05/25 14:03:50;;;;;;;1.95;0.60;;;;;;;23.32;34.25;99121.78;5162009;28;20053;-72
2022/05/25 14:06:44;;;;;;;1.40;0.40;;;;;;;22.66;35.59;99125.03;5161718;28;20050;-72
2022/05/25 14:12:44;;;;;;;2.05;0.70;;;;;;;22.66;33.20;99127.72;5156179;28;20090;-71
2022/05/25 14:15:35;;;;;;;2.13;0.52;;;;;;;22.90;33.38;99131.50;5157205;28;20046;-71
2022/05/25 14:18:27;;;;;;;0.73;0.35;;;;;;;22.78;33.77;99134.09;5145439;28;20148;-72
2022/05/25 14:21:35;;;;;;;1.02;0.50;;;;;;;22.92;34.94;99132.09;5154754;28;20273;-71
2022/05/25 14:24:44;;;;;;;2.83;0.40;;;;;;;23.44;32.66;99119.16;5160971;28;20054;-71
2022/05/25 14:27:38;;;;;;;3.83;0.50;;;;;;;23.25;34.25;99131.84;5147884;28;20463;-71
2022/05/25 14:30:33;;;;;;;3.60;0.45;;;;;;;23.61;34.42;99128.34;5161150;28;20113;-71
2022/05/25 14:33:27;;;;;;;2.05;0.50;;;;;;;24.01;33.22;99116.25;5258048;27;20393;-71
2022/05/25 14:36:21;;;;;;;5.30;0.52;;;;;;;23.63;32.73;99110.00;5253962;28;20110;-70
2022/05/25 14:39:15;;;;;;;3.38;0.70;;;;;;;22.34;35.10;99124.19;5222521;28;20106;-71
2022/05/25 14:42:21;;;;;;;2.63;0.73;;;;;;;23.26;33.75;99119.13;5239823;28;20141;-71